Terminal Aerodrome Forecast
Issued by NWS

Home | Current Version | Previous Version | Text Only | Print | Product List | Glossary Off
Versions: 1 2 3 4 5 6 7 8 9 10 11 12 13 14 15 16 17

088
FTUS43 KBIS 110529
TAFJMS
TAF
KJMS 110529Z 1106/1206 07011KT 1SM -SN OVC020
     FM111200 05008KT 2SM -SN OVC025
     FM111500 36006KT P6SM -SN OVC020
     FM111900 34007KT P6SM BKN020
     FM112100 31010KT P6SM BKN020
     FM120100 28010KT P6SM BKN035=

USA.gov is the U.S. government's official web portal to all federal, state and local government web resources and services.